sensor_id;sensor_type;location;lat;lon;timestamp;temperature;humidity
83685;DHT22;73666;51.304;5.776;2024-02-14T00:00:20;8.00;76.40
83685;DHT22;73666;51.304;5.776;2024-02-14T00:05:21;8.00;76.60
83685;DHT22;73666;51.304;5.776;2024-02-14T00:10:23;8.00;76.70
83685;DHT22;73666;51.304;5.776;2024-02-14T00:15:24;8.00;76.80
83685;DHT22;73666;51.304;5.776;2024-02-14T00:20:26;8.00;76.90
83685;DHT22;73666;51.304;5.776;2024-02-14T00:25:26;8.00;77.10
83685;DHT22;73666;51.304;5.776;2024-02-14T00:30:27;8.00;77.10
83685;DHT22;73666;51.304;5.776;2024-02-14T00:35:28;8.00;77.10
83685;DHT22;73666;51.304;5.776;2024-02-14T00:40:29;8.00;77.20
83685;DHT22;73666;51.304;5.776;2024-02-14T00:45:29;8.00;77.10
83685;DHT22;73666;51.304;5.776;2024-02-14T00:50:30;8.00;77.30
83685;DHT22;73666;51.304;5.776;2024-02-14T00:55:31;8.00;77.30
83685;DHT22;73666;51.304;5.776;2024-02-14T01:00:32;8.10;77.30
83685;DHT22;73666;51.304;5.776;2024-02-14T01:05:33;8.10;77.30
83685;DHT22;73666;51.304;5.776;2024-02-14T01:10:34;8.10;77.20
83685;DHT22;73666;51.304;5.776;2024-02-14T01:15:35;8.20;77.20
83685;DHT22;73666;51.304;5.776;2024-02-14T01:20:36;8.20;77.20
83685;DHT22;73666;51.304;5.776;2024-02-14T01:25:37;8.30;77.20
83685;DHT22;73666;51.304;5.776;2024-02-14T01:30:39;8.30;77.20
83685;DHT22;73666;51.304;5.776;2024-02-14T01:35:40;8.30;77.10
83685;DHT22;73666;51.304;5.776;2024-02-14T01:40:43;8.30;77.10
83685;DHT22;73666;51.304;5.776;2024-02-14T01:45:44;8.30;77.10
83685;DHT22;73666;51.304;5.776;2024-02-14T01:50:45;8.40;77.10
83685;DHT22;73666;51.304;5.776;2024-02-14T01:55:46;8.40;77.00
83685;DHT22;73666;51.304;5.776;2024-02-14T02:00:47;8.40;77.00
83685;DHT22;73666;51.304;5.776;2024-02-14T02:05:48;8.40;77.00
83685;DHT22;73666;51.304;5.776;2024-02-14T02:10:50;8.50;77.00
83685;DHT22;73666;51.304;5.776;2024-02-14T02:15:52;8.50;77.00
83685;DHT22;73666;51.304;5.776;2024-02-14T02:20:53;8.50;77.10
83685;DHT22;73666;51.304;5.776;2024-02-14T02:25:54;8.50;77.20
83685;DHT22;73666;51.304;5.776;2024-02-14T02:30:55;8.60;77.30
83685;DHT22;73666;51.304;5.776;2024-02-14T02:35:56;8.50;77.30
83685;DHT22;73666;51.304;5.776;2024-02-14T02:40:56;8.50;77.50
83685;DHT22;73666;51.304;5.776;2024-02-14T02:45:57;8.60;77.60
83685;DHT22;73666;51.304;5.776;2024-02-14T02:50:58;8.50;77.70
83685;DHT22;73666;51.304;5.776;2024-02-14T02:55:59;8.60;77.60
83685;DHT22;73666;51.304;5.776;2024-02-14T03:01:00;8.60;77.80
83685;DHT22;73666;51.304;5.776;2024-02-14T03:06:03;8.60;77.80
83685;DHT22;73666;51.304;5.776;2024-02-14T03:11:07;8.60;77.90
83685;DHT22;73666;51.304;5.776;2024-02-14T03:16:08;8.60;77.90
83685;DHT22;73666;51.304;5.776;2024-02-14T03:21:09;8.60;77.90
83685;DHT22;73666;51.304;5.776;2024-02-14T03:26:12;8.60;77.90
83685;DHT22;73666;51.304;5.776;2024-02-14T03:31:14;8.60;77.90
83685;DHT22;73666;51.304;5.776;2024-02-14T03:36:15;8.70;78.00
83685;DHT22;73666;51.304;5.776;2024-02-14T03:41:16;8.70;78.00
83685;DHT22;73666;51.304;5.776;2024-02-14T03:46:17;8.70;78.00
83685;DHT22;73666;51.304;5.776;2024-02-14T03:51:18;8.70;78.10
83685;DHT22;73666;51.304;5.776;2024-02-14T03:56:20;8.80;78.10
83685;DHT22;73666;51.304;5.776;2024-02-14T04:01:20;8.80;78.10
83685;DHT22;73666;51.304;5.776;2024-02-14T04:06:21;8.80;78.10
83685;DHT22;73666;51.304;5.776;2024-02-14T04:11:22;8.80;78.20
83685;DHT22;73666;51.304;5.776;2024-02-14T04:16:22;8.80;78.20
83685;DHT22;73666;51.304;5.776;2024-02-14T04:21:23;8.90;78.10
83685;DHT22;73666;51.304;5.776;2024-02-14T04:26:27;8.90;78.10
83685;DHT22;73666;51.304;5.776;2024-02-14T04:31:28;8.90;78.20
83685;DHT22;73666;51.304;5.776;2024-02-14T04:36:30;9.00;78.20
83685;DHT22;73666;51.304;5.776;2024-02-14T04:41:30;9.00;78.20
83685;DHT22;73666;51.304;5.776;2024-02-14T04:46:32;9.00;78.30
83685;DHT22;73666;51.304;5.776;2024-02-14T04:51:35;8.90;78.50
83685;DHT22;73666;51.304;5.776;2024-02-14T04:56:36;8.90;78.60
83685;DHT22;73666;51.304;5.776;2024-02-14T05:01:36;8.90;78.70
83685;DHT22;73666;51.304;5.776;2024-02-14T05:06:37;8.90;78.80
83685;DHT22;73666;51.304;5.776;2024-02-14T05:11:38;8.90;78.80
83685;DHT22;73666;51.304;5.776;2024-02-14T05:16:39;8.90;78.90
83685;DHT22;73666;51.304;5.776;2024-02-14T05:21:40;9.00;78.90
83685;DHT22;73666;51.304;5.776;2024-02-14T05:26:40;9.00;78.90
83685;DHT22;73666;51.304;5.776;2024-02-14T05:31:45;9.00;78.90
83685;DHT22;73666;51.304;5.776;2024-02-14T05:36:46;9.00;78.90
83685;DHT22;73666;51.304;5.776;2024-02-14T05:41:51;9.00;78.80
83685;DHT22;73666;51.304;5.776;2024-02-14T05:46:54;9.00;78.90
83685;DHT22;73666;51.304;5.776;2024-02-14T05:51:55;9.00;78.80
83685;DHT22;73666;51.304;5.776;2024-02-14T05:56:56;9.00;79.00
83685;DHT22;73666;51.304;5.776;2024-02-14T06:01:58;9.00;79.00
83685;DHT22;73666;51.304;5.776;2024-02-14T06:07:03;9.00;79.00
83685;DHT22;73666;51.304;5.776;2024-02-14T06:12:07;9.00;79.00
83685;DHT22;73666;51.304;5.776;2024-02-14T06:17:07;9.00;79.10
83685;DHT22;73666;51.304;5.776;2024-02-14T06:22:08;9.10;79.10
83685;DHT22;73666;51.304;5.776;2024-02-14T06:27:09;9.20;79.10
83685;DHT22;73666;51.304;5.776;2024-02-14T06:32:13;9.20;79.10
83685;DHT22;73666;51.304;5.776;2024-02-14T06:37:14;9.20;79.10
83685;DHT22;73666;51.304;5.776;2024-02-14T06:42:15;9.20;79.00
83685;DHT22;73666;51.304;5.776;2024-02-14T06:47:16;9.20;79.00
83685;DHT22;73666;51.304;5.776;2024-02-14T06:52:17;9.20;79.00
83685;DHT22;73666;51.304;5.776;2024-02-14T06:57:18;9.20;79.10
83685;DHT22;73666;51.304;5.776;2024-02-14T07:02:18;9.30;79.10
83685;DHT22;73666;51.304;5.776;2024-02-14T07:07:19;9.30;79.10
83685;DHT22;73666;51.304;5.776;2024-02-14T07:12:20;9.40;79.00
83685;DHT22;73666;51.304;5.776;2024-02-14T07:17:21;9.40;79.00
83685;DHT22;73666;51.304;5.776;2024-02-14T07:22:22;9.40;79.00
83685;DHT22;73666;51.304;5.776;2024-02-14T07:27:23;9.40;79.00
83685;DHT22;73666;51.304;5.776;2024-02-14T07:32:24;9.40;79.20
83685;DHT22;73666;51.304;5.776;2024-02-14T07:37:25;9.40;79.30
83685;DHT22;73666;51.304;5.776;2024-02-14T07:42:26;9.40;79.30
83685;DHT22;73666;51.304;5.776;2024-02-14T07:47:27;9.50;79.30
83685;DHT22;73666;51.304;5.776;2024-02-14T07:52:29;9.50;79.20
83685;DHT22;73666;51.304;5.776;2024-02-14T07:57:30;9.60;79.20
83685;DHT22;73666;51.304;5.776;2024-02-14T08:02:30;9.70;79.10
83685;DHT22;73666;51.304;5.776;2024-02-14T08:07:31;9.80;79.00
83685;DHT22;73666;51.304;5.776;2024-02-14T08:12:32;10.00;78.70
83685;DHT22;73666;51.304;5.776;2024-02-14T08:17:33;10.00;78.60
83685;DHT22;73666;51.304;5.776;2024-02-14T08:22:34;10.10;78.50
83685;DHT22;73666;51.304;5.776;2024-02-14T08:27:35;10.10;78.40
83685;DHT22;73666;51.304;5.776;2024-02-14T08:32:36;10.20;78.30
83685;DHT22;73666;51.304;5.776;2024-02-14T08:37:36;10.30;78.10
83685;DHT22;73666;51.304;5.776;2024-02-14T08:42:38;10.40;78.00
83685;DHT22;73666;51.304;5.776;2024-02-14T08:47:39;10.50;77.70
83685;DHT22;73666;51.304;5.776;2024-02-14T08:52:41;10.60;77.70
83685;DHT22;73666;51.304;5.776;2024-02-14T08:57:41;10.80;77.50
83685;DHT22;73666;51.304;5.776;2024-02-14T09:02:42;10.90;77.30
83685;DHT22;73666;51.304;5.776;2024-02-14T09:07:43;10.90;77.10
83685;DHT22;73666;51.304;5.776;2024-02-14T09:12:44;11.00;77.10
83685;DHT22;73666;51.304;5.776;2024-02-14T09:17:45;11.00;77.00
83685;DHT22;73666;51.304;5.776;2024-02-14T09:22:46;11.10;77.00
83685;DHT22;73666;51.304;5.776;2024-02-14T09:27:47;11.10;76.70
83685;DHT22;73666;51.304;5.776;2024-02-14T09:32:47;11.10;76.70
83685;DHT22;73666;51.304;5.776;2024-02-14T09:37:48;11.10;76.90
83685;DHT22;73666;51.304;5.776;2024-02-14T09:42:56;11.30;76.80
83685;DHT22;73666;51.304;5.776;2024-02-14T09:48:00;11.50;76.60
83685;DHT22;73666;51.304;5.776;2024-02-14T09:53:02;11.80;76.20
83685;DHT22;73666;51.304;5.776;2024-02-14T09:58:03;12.10;75.70
83685;DHT22;73666;51.304;5.776;2024-02-14T10:03:07;12.10;75.60
83685;DHT22;73666;51.304;5.776;2024-02-14T10:08:08;12.10;75.50
83685;DHT22;73666;51.304;5.776;2024-02-14T10:13:10;12.00;75.60
83685;DHT22;73666;51.304;5.776;2024-02-14T10:18:11;12.10;75.70
83685;DHT22;73666;51.304;5.776;2024-02-14T10:23:12;12.20;75.60
83685;DHT22;73666;51.304;5.776;2024-02-14T10:28:13;12.20;75.50
83685;DHT22;73666;51.304;5.776;2024-02-14T10:33:14;12.10;75.40
83685;DHT22;73666;51.304;5.776;2024-02-14T10:38:16;12.00;75.70
83685;DHT22;73666;51.304;5.776;2024-02-14T10:43:18;11.90;76.00
83685;DHT22;73666;51.304;5.776;2024-02-14T10:48:22;12.00;76.00
83685;DHT22;73666;51.304;5.776;2024-02-14T10:53:26;12.10;76.00
83685;DHT22;73666;51.304;5.776;2024-02-14T10:58:30;12.20;75.80
83685;DHT22;73666;51.304;5.776;2024-02-14T11:03:33;12.20;75.80
83685;DHT22;73666;51.304;5.776;2024-02-14T11:08:34;12.30;75.90
83685;DHT22;73666;51.304;5.776;2024-02-14T11:13:36;12.20;76.00
83685;DHT22;73666;51.304;5.776;2024-02-14T11:18:37;12.30;76.00
83685;DHT22;73666;51.304;5.776;2024-02-14T11:23:38;12.30;76.00
83685;DHT22;73666;51.304;5.776;2024-02-14T11:28:40;12.30;76.10
83685;DHT22;73666;51.304;5.776;2024-02-14T11:33:41;12.20;76.20
83685;DHT22;73666;51.304;5.776;2024-02-14T11:38:47;12.10;76.50
83685;DHT22;73666;51.304;5.776;2024-02-14T11:43:54;12.00;76.70
83685;DHT22;73666;51.304;5.776;2024-02-14T11:48:55;11.90;76.90
83685;DHT22;73666;51.304;5.776;2024-02-14T11:53:56;11.90;77.00
83685;DHT22;73666;51.304;5.776;2024-02-14T11:59:00;12.00;77.10
83685;DHT22;73666;51.304;5.776;2024-02-14T12:04:08;12.10;77.00
83685;DHT22;73666;51.304;5.776;2024-02-14T12:09:10;12.10;76.90
83685;DHT22;73666;51.304;5.776;2024-02-14T12:14:13;12.20;76.90
83685;DHT22;73666;51.304;5.776;2024-02-14T12:19:14;12.20;76.80
83685;DHT22;73666;51.304;5.776;2024-02-14T12:24:17;12.30;76.80
83685;DHT22;73666;51.304;5.776;2024-02-14T12:29:18;12.30;76.70
83685;DHT22;73666;51.304;5.776;2024-02-14T12:34:19;12.30;76.50
83685;DHT22;73666;51.304;5.776;2024-02-14T12:39:21;12.20;76.70
83685;DHT22;73666;51.304;5.776;2024-02-14T12:44:21;12.20;76.80
83685;DHT22;73666;51.304;5.776;2024-02-14T12:49:22;12.30;76.80
83685;DHT22;73666;51.304;5.776;2024-02-14T12:54:26;12.40;76.90
83685;DHT22;73666;51.304;5.776;2024-02-14T12:59:27;12.40;76.80
83685;DHT22;73666;51.304;5.776;2024-02-14T13:04:27;12.40;76.80
83685;DHT22;73666;51.304;5.776;2024-02-14T13:09:28;12.40;76.90
83685;DHT22;73666;51.304;5.776;2024-02-14T13:14:29;12.30;77.00
83685;DHT22;73666;51.304;5.776;2024-02-14T13:19:32;12.40;77.00
83685;DHT22;73666;51.304;5.776;2024-02-14T13:24:33;12.40;77.20
83685;DHT22;73666;51.304;5.776;2024-02-14T13:29:38;12.50;77.20
83685;DHT22;73666;51.304;5.776;2024-02-14T13:34:38;12.50;77.20
83685;DHT22;73666;51.304;5.776;2024-02-14T13:39:39;12.50;77.30
83685;DHT22;73666;51.304;5.776;2024-02-14T13:44:40;12.40;77.50
83685;DHT22;73666;51.304;5.776;2024-02-14T13:49:41;12.30;77.60
83685;DHT22;73666;51.304;5.776;2024-02-14T13:54:42;12.30;77.70
83685;DHT22;73666;51.304;5.776;2024-02-14T13:59:42;12.20;77.80
83685;DHT22;73666;51.304;5.776;2024-02-14T14:04:43;12.20;77.90
83685;DHT22;73666;51.304;5.776;2024-02-14T14:09:44;12.20;78.10
83685;DHT22;73666;51.304;5.776;2024-02-14T14:14:45;12.10;78.10
83685;DHT22;73666;51.304;5.776;2024-02-14T14:19:45;12.10;78.20
83685;DHT22;73666;51.304;5.776;2024-02-14T14:24:46;12.10;78.30
83685;DHT22;73666;51.304;5.776;2024-02-14T14:29:47;12.00;78.40
83685;DHT22;73666;51.304;5.776;2024-02-14T14:34:49;12.00;78.50
83685;DHT22;73666;51.304;5.776;2024-02-14T14:39:50;11.90;78.60
83685;DHT22;73666;51.304;5.776;2024-02-14T14:44:50;11.90;78.70
83685;DHT22;73666;51.304;5.776;2024-02-14T14:49:51;11.90;78.80
83685;DHT22;73666;51.304;5.776;2024-02-14T14:54:52;11.90;78.90
83685;DHT22;73666;51.304;5.776;2024-02-14T14:59:53;11.90;79.00
83685;DHT22;73666;51.304;5.776;2024-02-14T15:04:54;11.90;79.00
83685;DHT22;73666;51.304;5.776;2024-02-14T15:09:55;11.90;79.10
83685;DHT22;73666;51.304;5.776;2024-02-14T15:14:55;11.90;79.10
83685;DHT22;73666;51.304;5.776;2024-02-14T15:19:57;11.90;79.10
83685;DHT22;73666;51.304;5.776;2024-02-14T15:24:57;11.90;79.30
83685;DHT22;73666;51.304;5.776;2024-02-14T15:29:58;11.90;79.30
83685;DHT22;73666;51.304;5.776;2024-02-14T15:35:18;11.90;79.50
83685;DHT22;73666;51.304;5.776;2024-02-14T15:40:19;11.90;79.50
83685;DHT22;73666;51.304;5.776;2024-02-14T15:45:20;11.90;79.50
83685;DHT22;73666;51.304;5.776;2024-02-14T15:50:21;11.90;79.50
83685;DHT22;73666;51.304;5.776;2024-02-14T15:55:23;11.90;79.50
83685;DHT22;73666;51.304;5.776;2024-02-14T16:00:24;11.90;79.60
83685;DHT22;73666;51.304;5.776;2024-02-14T16:05:31;11.90;79.60
83685;DHT22;73666;51.304;5.776;2024-02-14T16:10:32;11.90;79.60
83685;DHT22;73666;51.304;5.776;2024-02-14T16:15:34;11.90;79.70
83685;DHT22;73666;51.304;5.776;2024-02-14T16:20:35;11.90;79.70
83685;DHT22;73666;51.304;5.776;2024-02-14T16:25:35;11.90;79.70
83685;DHT22;73666;51.304;5.776;2024-02-14T16:30:38;11.80;79.80
83685;DHT22;73666;51.304;5.776;2024-02-14T16:35:38;11.80;79.80
83685;DHT22;73666;51.304;5.776;2024-02-14T16:40:40;11.80;79.90
83685;DHT22;73666;51.304;5.776;2024-02-14T16:45:40;11.70;79.90
83685;DHT22;73666;51.304;5.776;2024-02-14T16:50:41;11.70;79.90
83685;DHT22;73666;51.304;5.776;2024-02-14T16:55:43;11.70;80.00
83685;DHT22;73666;51.304;5.776;2024-02-14T17:00:43;11.70;80.00
83685;DHT22;73666;51.304;5.776;2024-02-14T17:05:47;11.70;80.00
83685;DHT22;73666;51.304;5.776;2024-02-14T17:10:48;11.70;80.10
83685;DHT22;73666;51.304;5.776;2024-02-14T17:15:48;11.70;80.00
83685;DHT22;73666;51.304;5.776;2024-02-14T17:20:49;11.70;80.10
83685;DHT22;73666;51.304;5.776;2024-02-14T17:25:50;11.70;80.10
83685;DHT22;73666;51.304;5.776;2024-02-14T17:30:51;11.70;80.10
83685;DHT22;73666;51.304;5.776;2024-02-14T17:35:52;11.80;80.10
83685;DHT22;73666;51.304;5.776;2024-02-14T17:40:53;11.70;80.10
83685;DHT22;73666;51.304;5.776;2024-02-14T17:45:54;11.70;80.10
83685;DHT22;73666;51.304;5.776;2024-02-14T17:50:56;11.70;80.20
83685;DHT22;73666;51.304;5.776;2024-02-14T17:55:57;11.70;80.20
83685;DHT22;73666;51.304;5.776;2024-02-14T18:00:58;11.70;80.30
83685;DHT22;73666;51.304;5.776;2024-02-14T18:06:00;11.70;80.30
83685;DHT22;73666;51.304;5.776;2024-02-14T18:11:01;11.70;80.40
83685;DHT22;73666;51.304;5.776;2024-02-14T18:16:03;11.70;80.40
83685;DHT22;73666;51.304;5.776;2024-02-14T18:21:04;11.70;80.40
83685;DHT22;73666;51.304;5.776;2024-02-14T18:26:05;11.70;80.40
83685;DHT22;73666;51.304;5.776;2024-02-14T18:31:08;11.70;80.40
83685;DHT22;73666;51.304;5.776;2024-02-14T18:36:12;11.70;80.40
83685;DHT22;73666;51.304;5.776;2024-02-14T18:41:14;11.70;80.50
83685;DHT22;73666;51.304;5.776;2024-02-14T18:46:14;11.70;80.40
83685;DHT22;73666;51.304;5.776;2024-02-14T18:51:15;11.70;80.50
83685;DHT22;73666;51.304;5.776;2024-02-14T18:56:17;11.70;80.40
83685;DHT22;73666;51.304;5.776;2024-02-14T19:01:24;11.70;80.50
83685;DHT22;73666;51.304;5.776;2024-02-14T19:06:28;11.70;80.50
83685;DHT22;73666;51.304;5.776;2024-02-14T19:11:31;11.70;80.50
83685;DHT22;73666;51.304;5.776;2024-02-14T19:16:31;11.70;80.50
83685;DHT22;73666;51.304;5.776;2024-02-14T19:21:33;11.70;80.40
83685;DHT22;73666;51.304;5.776;2024-02-14T19:26:40;11.70;80.50
83685;DHT22;73666;51.304;5.776;2024-02-14T19:31:42;11.70;80.50
83685;DHT22;73666;51.304;5.776;2024-02-14T19:36:43;11.70;80.50
83685;DHT22;73666;51.304;5.776;2024-02-14T19:41:43;11.70;80.50
83685;DHT22;73666;51.304;5.776;2024-02-14T19:46:45;11.70;80.50
83685;DHT22;73666;51.304;5.776;2024-02-14T19:51:46;11.70;80.50
83685;DHT22;73666;51.304;5.776;2024-02-14T19:56:48;11.70;80.40
83685;DHT22;73666;51.304;5.776;2024-02-14T20:01:50;11.70;80.50
83685;DHT22;73666;51.304;5.776;2024-02-14T20:06:52;11.70;80.50
83685;DHT22;73666;51.304;5.776;2024-02-14T20:11:56;11.70;80.50
83685;DHT22;73666;51.304;5.776;2024-02-14T20:16:57;11.70;80.50
83685;DHT22;73666;51.304;5.776;2024-02-14T20:21:58;11.70;80.50
83685;DHT22;73666;51.304;5.776;2024-02-14T20:26:59;11.70;80.40
83685;DHT22;73666;51.304;5.776;2024-02-14T20:32:00;11.80;80.40
83685;DHT22;73666;51.304;5.776;2024-02-14T20:37:03;11.80;80.30
83685;DHT22;73666;51.304;5.776;2024-02-14T20:42:08;11.80;80.30
83685;DHT22;73666;51.304;5.776;2024-02-14T20:47:11;11.90;80.30
83685;DHT22;73666;51.304;5.776;2024-02-14T20:52:14;11.80;80.30
83685;DHT22;73666;51.304;5.776;2024-02-14T20:57:15;11.80;80.20
83685;DHT22;73666;51.304;5.776;2024-02-14T21:02:16;11.90;80.20
83685;DHT22;73666;51.304;5.776;2024-02-14T21:07:18;11.80;80.20
83685;DHT22;73666;51.304;5.776;2024-02-14T21:12:18;11.80;80.10
83685;DHT22;73666;51.304;5.776;2024-02-14T21:17:22;11.80;80.20
83685;DHT22;73666;51.304;5.776;2024-02-14T21:22:23;11.80;80.20
83685;DHT22;73666;51.304;5.776;2024-02-14T21:27:24;11.80;80.20
83685;DHT22;73666;51.304;5.776;2024-02-14T21:32:25;11.70;80.20
83685;DHT22;73666;51.304;5.776;2024-02-14T21:37:26;11.80;80.20
83685;DHT22;73666;51.304;5.776;2024-02-14T21:42:27;11.80;80.20
83685;DHT22;73666;51.304;5.776;2024-02-14T21:47:28;11.90;80.10
83685;DHT22;73666;51.304;5.776;2024-02-14T21:52:28;11.80;80.10
83685;DHT22;73666;51.304;5.776;2024-02-14T21:57:30;11.80;80.20
83685;DHT22;73666;51.304;5.776;2024-02-14T22:02:31;11.80;80.20
83685;DHT22;73666;51.304;5.776;2024-02-14T22:07:32;11.70;80.30
83685;DHT22;73666;51.304;5.776;2024-02-14T22:12:34;11.70;80.40
83685;DHT22;73666;51.304;5.776;2024-02-14T22:17:34;11.70;80.40
83685;DHT22;73666;51.304;5.776;2024-02-14T22:22:37;11.70;80.40
83685;DHT22;73666;51.304;5.776;2024-02-14T22:27:39;11.70;80.40
83685;DHT22;73666;51.304;5.776;2024-02-14T22:32:39;11.70;80.50
83685;DHT22;73666;51.304;5.776;2024-02-14T22:37:40;11.70;80.50
83685;DHT22;73666;51.304;5.776;2024-02-14T22:42:41;11.70;80.50
83685;DHT22;73666;51.304;5.776;2024-02-14T22:47:42;11.70;80.60
83685;DHT22;73666;51.304;5.776;2024-02-14T22:52:44;11.70;80.60
83685;DHT22;73666;51.304;5.776;2024-02-14T22:57:45;11.70;80.60
83685;DHT22;73666;51.304;5.776;2024-02-14T23:02:45;11.70;80.60
83685;DHT22;73666;51.304;5.776;2024-02-14T23:07:47;11.70;80.60
83685;DHT22;73666;51.304;5.776;2024-02-14T23:12:49;11.70;80.60
83685;DHT22;73666;51.304;5.776;2024-02-14T23:17:50;11.70;80.60
83685;DHT22;73666;51.304;5.776;2024-02-14T23:22:51;11.70;80.60
83685;DHT22;73666;51.304;5.776;2024-02-14T23:27:51;11.70;80.60
83685;DHT22;73666;51.304;5.776;2024-02-14T23:32:52;11.70;80.50
83685;DHT22;73666;51.304;5.776;2024-02-14T23:37:54;11.70;80.60
83685;DHT22;73666;51.304;5.776;2024-02-14T23:42:56;11.70;80.50
83685;DHT22;73666;51.304;5.776;2024-02-14T23:48:00;11.70;80.60
83685;DHT22;73666;51.304;5.776;2024-02-14T23:53:00;11.70;80.50
83685;DHT22;73666;51.304;5.776;2024-02-14T23:58:02;11.70;80.60
